Palmer, Illinois
Current Conditions -  °F | °C
As of 8:55 PM on Saturday 25 Oct 2014 (Local Time) from KTAZ Reporting Station
Clear Clear  
Wind Chill: 57°   Ceiling: Unl
Heat Index: 57°   Visibility: 10mi
Dew Point: 46°   Wind: 3mph
Humidity: 67%   Direction: 300°WNW
Pressure: 30.02"   Gusts: NA
Location:  39.46°N, 89.4°W
Report Text: KTAZ 260155Z AUTO 30003KT 10SM CLR 14/08 A3002 RMK AO2
Loading
Personal Weather Stations






























Interactive Weather Map
Tropical Storm Tracking
New forecast layout! Learn more

10-Day Weather Forecast

Advertisements
Track Severe Weather on mobile